createdAt,value
2022-10-17T00:01:59.190Z,52.08
2022-10-17T00:04:49.053Z,52.00
2022-10-17T00:07:39.043Z,52.29
2022-10-17T00:10:28.992Z,52.34
2022-10-17T00:13:19.014Z,52.23
2022-10-17T00:16:10.681Z,52.38
2022-10-17T00:19:00.579Z,52.32
2022-10-17T00:21:51.222Z,52.26
2022-10-17T00:24:41.322Z,52.49
2022-10-17T00:27:31.171Z,52.33
2022-10-17T00:30:21.298Z,52.25
2022-10-17T00:33:11.921Z,52.43
2022-10-17T00:36:07.658Z,52.21
2022-10-17T00:38:59.603Z,52.35
2022-10-17T00:41:49.506Z,52.29
2022-10-17T00:45:20.785Z,52.39
2022-10-17T00:48:10.968Z,52.36
2022-10-17T00:51:00.981Z,52.48
2022-10-17T00:53:51.284Z,52.25
2022-10-17T00:56:41.198Z,52.34
2022-10-17T00:59:31.143Z,52.27
2022-10-17T01:02:22.282Z,52.13
2022-10-17T01:05:12.431Z,52.38
2022-10-17T01:08:02.316Z,52.30
2022-10-17T01:11:01.044Z,52.43
2022-10-17T01:13:53.491Z,52.37
2022-10-17T01:16:51.564Z,52.45
2022-10-17T01:19:58.466Z,52.45
2022-10-17T01:22:51.804Z,52.32
2022-10-17T01:25:48.964Z,52.46
2022-10-17T01:28:57.896Z,52.19
2022-10-17T01:31:51.018Z,52.50
2022-10-17T01:34:46.671Z,52.37
2022-10-17T01:37:42.752Z,52.43
2022-10-17T01:40:35.816Z,52.63
2022-10-17T01:43:28.212Z,52.52
2022-10-17T01:46:22.107Z,52.22
2022-10-17T01:49:13.128Z,52.47
2022-10-17T01:52:06.384Z,52.47
2022-10-17T01:54:59.160Z,52.41
2022-10-17T01:57:50.832Z,52.20
2022-10-17T02:00:42.138Z,52.45
2022-10-17T02:03:33.890Z,52.40
2022-10-17T02:06:23.788Z,52.39
2022-10-17T02:09:22.913Z,52.28
2022-10-17T02:12:24.366Z,52.48
2022-10-17T02:15:58.742Z,52.38
2022-10-17T02:19:16.089Z,52.38
2022-10-17T02:22:18.304Z,52.43
2022-10-17T02:25:14.274Z,52.35
2022-10-17T02:28:16.339Z,52.47
2022-10-17T02:31:10.117Z,52.47
2022-10-17T02:34:02.349Z,52.36
2022-10-17T02:36:54.867Z,52.28
2022-10-17T02:39:44.920Z,52.36
2022-10-17T02:42:34.936Z,52.32
2022-10-17T02:45:27.211Z,52.46
2022-10-17T02:48:19.816Z,52.42
2022-10-17T02:51:14.761Z,52.47
2022-10-17T02:54:09.404Z,52.20
2022-10-17T02:57:08.761Z,52.07
2022-10-17T03:00:00.006Z,52.34
2022-10-17T03:02:51.539Z,52.29
2022-10-17T03:05:41.476Z,52.46
2022-10-17T03:08:31.406Z,52.44
2022-10-17T03:11:21.634Z,52.20
2022-10-17T03:14:13.990Z,52.59
2022-10-17T03:17:04.278Z,52.33
2022-10-17T03:19:55.777Z,52.28
2022-10-17T03:22:45.732Z,52.37
2022-10-17T03:25:36.177Z,52.46
2022-10-17T03:28:27.404Z,52.26
2022-10-17T03:31:18.028Z,52.46
2022-10-17T03:34:08.593Z,52.44
2022-10-17T03:36:58.863Z,52.60
2022-10-17T03:39:49.689Z,52.31
2022-10-17T03:42:39.896Z,52.50
2022-10-17T03:45:30.099Z,52.62
2022-10-17T03:48:20.170Z,52.37
2022-10-17T03:51:10.987Z,52.49
2022-10-17T03:54:05.471Z,52.32
2022-10-17T03:57:00.304Z,52.27
2022-10-17T03:59:52.211Z,52.36
2022-10-17T04:02:44.461Z,52.24
2022-10-17T04:05:44.591Z,52.36
2022-10-17T04:08:34.921Z,52.44
2022-10-17T04:11:37.131Z,52.22
2022-10-17T04:14:27.171Z,52.29
2022-10-17T04:17:17.443Z,52.46
2022-10-17T04:20:10.368Z,52.52
2022-10-17T04:23:00.992Z,52.15
2022-10-17T04:25:51.201Z,52.35
2022-10-17T04:28:41.264Z,52.45
2022-10-17T04:31:31.450Z,52.48
2022-10-17T04:34:27.428Z,52.40
2022-10-17T04:37:17.641Z,52.34
2022-10-17T04:40:11.424Z,52.54
2022-10-17T04:43:01.847Z,52.24
2022-10-17T04:45:58.399Z,52.47
2022-10-17T04:48:48.370Z,52.37
2022-10-17T04:51:38.480Z,52.54
2022-10-17T04:54:41.729Z,52.34
2022-10-17T04:57:36.096Z,52.32
2022-10-17T05:00:33.297Z,52.30
2022-10-17T05:03:43.713Z,52.38
2022-10-17T05:06:34.841Z,52.47
2022-10-17T05:09:47.991Z,52.35
2022-10-17T05:12:38.228Z,52.29
2022-10-17T05:15:54.509Z,52.44
2022-10-17T05:18:45.919Z,52.46
2022-10-17T05:21:42.534Z,52.43
2022-10-17T05:24:50.087Z,52.33
2022-10-17T05:27:40.493Z,52.25
2022-10-17T05:30:37.468Z,52.38
2022-10-17T05:33:29.468Z,52.32
2022-10-17T05:36:24.461Z,52.25
2022-10-17T05:39:22.583Z,52.25
2022-10-17T05:42:13.258Z,52.33
2022-10-17T05:45:03.473Z,52.41
2022-10-17T05:47:53.924Z,52.23
2022-10-17T05:50:44.433Z,52.46
2022-10-17T05:53:40.811Z,52.36
2022-10-17T05:56:34.061Z,52.17
2022-10-17T05:59:26.181Z,52.32
2022-10-17T06:02:37.305Z,52.22
2022-10-17T06:05:28.681Z,52.38
2022-10-17T06:08:19.493Z,52.23
2022-10-17T06:11:10.533Z,52.27
2022-10-17T06:14:02.644Z,52.14
2022-10-17T06:16:53.594Z,52.28
2022-10-17T06:19:47.129Z,52.14
2022-10-17T06:22:38.414Z,52.42
2022-10-17T06:25:34.026Z,52.53
2022-10-17T06:28:24.302Z,52.50
2022-10-17T06:31:16.989Z,52.60
2022-10-17T06:34:07.102Z,52.70
2022-10-17T06:39:53.465Z,52.82
2022-10-17T06:42:45.712Z,52.98
2022-10-17T06:45:54.646Z,52.96
2022-10-17T06:49:02.024Z,53.13
2022-10-17T06:51:58.491Z,53.37
2022-10-17T06:55:08.081Z,53.34
2022-10-17T06:58:12.682Z,53.09
2022-10-17T07:01:20.153Z,52.62
2022-10-17T07:04:11.419Z,52.42
2022-10-17T07:07:02.580Z,51.93
2022-10-17T07:09:55.490Z,51.62
2022-10-17T07:12:46.076Z,51.17
2022-10-17T07:15:37.275Z,51.42
2022-10-17T07:18:27.245Z,51.47
2022-10-17T07:21:18.004Z,51.25
2022-10-17T07:24:08.111Z,51.14
2022-10-17T07:26:58.359Z,51.08
2022-10-17T07:29:48.589Z,51.27
2022-10-17T07:32:51.734Z,51.38
2022-10-17T07:35:41.724Z,51.42
2022-10-17T07:38:33.684Z,51.50
2022-10-17T07:41:23.903Z,51.48
2022-10-17T07:44:14.882Z,51.59
2022-10-17T07:47:08.443Z,51.65
2022-10-17T07:49:59.776Z,51.80
2022-10-17T07:52:49.661Z,51.85
2022-10-17T07:55:40.667Z,51.72
2022-10-17T07:58:31.001Z,51.92
2022-10-17T08:01:20.917Z,51.62
2022-10-17T08:04:28.100Z,51.93
2022-10-17T08:07:25.315Z,51.87
2022-10-17T08:10:19.364Z,51.79
2022-10-17T08:13:09.756Z,52.09
2022-10-17T08:16:02.188Z,52.14
2022-10-17T08:18:52.393Z,51.77
2022-10-17T08:21:44.332Z,51.79
2022-10-17T08:24:34.627Z,51.87
2022-10-17T08:27:28.393Z,51.74
2022-10-17T08:30:18.917Z,51.68
2022-10-17T08:33:08.975Z,51.73
2022-10-17T08:36:00.950Z,52.03
2022-10-17T08:38:53.008Z,51.94
2022-10-17T08:41:54.276Z,51.95
2022-10-17T08:44:52.027Z,51.95
2022-10-17T08:47:43.568Z,52.03
2022-10-17T08:50:37.260Z,51.82
2022-10-17T08:53:31.346Z,51.92
2022-10-17T08:56:44.149Z,51.89
2022-10-17T08:59:35.024Z,51.94
2022-10-17T09:02:45.934Z,51.94
2022-10-17T09:05:55.468Z,52.07
2022-10-17T09:08:56.179Z,52.01
2022-10-17T09:11:58.149Z,51.79
2022-10-17T09:15:10.595Z,52.12
2022-10-17T09:18:03.911Z,52.07
2022-10-17T09:20:55.496Z,51.90
2022-10-17T09:23:49.459Z,51.83
2022-10-17T09:26:40.882Z,52.06
2022-10-17T09:29:36.972Z,52.14
2022-10-17T09:32:29.906Z,52.23
2022-10-17T09:35:21.287Z,51.93
2022-10-17T09:38:18.736Z,52.03
2022-10-17T09:44:33.041Z,51.74
2022-10-17T09:47:29.595Z,52.18
2022-10-17T09:50:25.165Z,52.32
2022-10-17T09:53:21.087Z,52.25
2022-10-17T09:56:15.471Z,52.06
2022-10-17T09:59:07.564Z,52.18
2022-10-17T10:02:27.330Z,52.10
2022-10-17T10:05:20.473Z,52.00
2022-10-17T10:08:17.497Z,52.01
2022-10-17T10:11:13.467Z,52.00
2022-10-17T10:14:13.200Z,52.09
2022-10-17T10:17:05.425Z,52.09
2022-10-17T10:19:55.705Z,51.91
2022-10-17T10:22:45.893Z,52.06
2022-10-17T10:25:36.916Z,51.83
2022-10-17T10:28:29.473Z,51.75
2022-10-17T10:31:28.293Z,51.69
2022-10-17T10:34:21.695Z,51.69
2022-10-17T10:37:19.982Z,51.87
2022-10-17T10:40:19.017Z,51.73
2022-10-17T10:43:21.273Z,51.93
2022-10-17T10:46:20.218Z,52.18
2022-10-17T10:49:30.146Z,52.08
2022-10-17T10:52:29.636Z,52.00
2022-10-17T10:55:29.492Z,52.16
2022-10-17T10:58:32.771Z,52.14
2022-10-17T11:01:29.382Z,51.81
2022-10-17T11:04:29.977Z,51.79
2022-10-17T11:07:23.163Z,51.63
2022-10-17T11:10:19.070Z,51.49
2022-10-17T11:13:14.227Z,51.48
2022-10-17T11:16:26.055Z,51.63
2022-10-17T11:19:20.835Z,51.71
2022-10-17T11:22:15.109Z,51.81
2022-10-17T11:25:14.848Z,51.80
2022-10-17T11:28:13.304Z,51.66
2022-10-17T11:31:07.851Z,51.55
2022-10-17T11:34:01.600Z,51.71
2022-10-17T11:36:56.797Z,51.73
2022-10-17T11:39:50.619Z,51.62
2022-10-17T11:42:46.043Z,51.60
2022-10-17T11:45:40.733Z,51.84
2022-10-17T11:48:34.336Z,51.87
2022-10-17T11:54:37.866Z,51.75
2022-10-17T11:57:49.222Z,51.71
2022-10-17T12:00:50.265Z,51.66
2022-10-17T12:04:12.896Z,51.58
2022-10-17T12:07:12.690Z,51.48
2022-10-17T12:10:15.127Z,51.58
2022-10-17T12:13:57.419Z,51.58
2022-10-17T12:16:47.999Z,51.48
2022-10-17T12:19:38.501Z,51.41
2022-10-17T12:22:29.987Z,51.62
2022-10-17T12:25:22.947Z,51.58
2022-10-17T12:32:16.856Z,51.27
2022-10-17T12:35:18.892Z,51.35
2022-10-17T12:38:23.316Z,51.19
2022-10-17T12:41:13.845Z,51.37
2022-10-17T12:44:07.090Z,51.40
2022-10-17T12:47:07.515Z,51.29
2022-10-17T12:49:57.664Z,51.47
2022-10-17T12:53:01.685Z,51.19
2022-10-17T12:55:54.050Z,51.11
2022-10-17T12:58:47.009Z,51.00
2022-10-17T13:01:39.075Z,51.25
2022-10-17T13:04:29.154Z,51.18
2022-10-17T13:07:22.093Z,51.03
2022-10-17T13:10:22.653Z,51.07
2022-10-17T13:13:20.038Z,51.14
2022-10-17T13:16:10.265Z,51.13
2022-10-17T13:19:01.840Z,51.08
2022-10-17T13:21:55.785Z,51.25
2022-10-17T13:24:46.205Z,51.20
2022-10-17T13:27:37.291Z,51.25
2022-10-17T13:30:32.060Z,50.99
2022-10-17T13:33:37.378Z,51.30
2022-10-17T13:36:27.850Z,51.30
2022-10-17T13:39:32.396Z,51.03
2022-10-17T13:42:32.308Z,51.08
2022-10-17T13:45:28.594Z,51.33
2022-10-17T13:48:22.668Z,51.08
2022-10-17T13:51:13.603Z,51.05
2022-10-17T13:54:04.085Z,51.19
2022-10-17T13:56:58.298Z,51.35
2022-10-17T13:59:49.481Z,51.08
2022-10-17T14:02:42.120Z,51.39
2022-10-17T14:05:32.736Z,51.69
2022-10-17T14:08:23.821Z,51.33
2022-10-17T14:11:22.358Z,51.57
2022-10-17T14:14:19.170Z,51.40
2022-10-17T14:17:16.005Z,51.35
2022-10-17T14:20:40.877Z,51.09
2022-10-17T14:23:36.663Z,51.36
2022-10-17T14:26:27.099Z,51.44
2022-10-17T14:29:24.742Z,51.34
2022-10-17T14:32:15.010Z,51.20
2022-10-17T14:35:40.370Z,51.49
2022-10-17T14:38:27.830Z,51.09
2022-10-17T14:41:41.774Z,51.41
2022-10-17T14:44:35.061Z,51.17
2022-10-17T14:47:44.100Z,51.16
2022-10-17T14:50:35.834Z,50.94
2022-10-17T14:53:27.921Z,50.91
2022-10-17T14:56:25.775Z,51.14
2022-10-17T14:59:30.158Z,51.25
2022-10-17T15:02:30.123Z,51.74
2022-10-17T15:05:22.621Z,51.03
2022-10-17T15:08:14.719Z,51.59
2022-10-17T15:11:05.155Z,51.84
2022-10-17T15:13:55.681Z,51.94
2022-10-17T15:16:45.790Z,52.36
2022-10-17T15:19:35.781Z,52.07
2022-10-17T15:22:26.545Z,52.47
2022-10-17T15:25:17.198Z,52.51
2022-10-17T15:28:07.805Z,52.59
2022-10-17T15:31:02.158Z,52.72
2022-10-17T15:33:53.837Z,53.04
2022-10-17T15:36:51.998Z,53.07
2022-10-17T15:39:42.413Z,53.10
2022-10-17T15:42:32.581Z,53.38
2022-10-17T15:45:23.086Z,53.35
2022-10-17T15:48:22.694Z,53.22
2022-10-17T15:51:13.236Z,53.06
2022-10-17T15:54:05.361Z,53.20
2022-10-17T15:56:55.785Z,53.27
2022-10-17T15:59:49.865Z,53.11
2022-10-17T16:02:40.252Z,53.44
2022-10-17T16:05:30.618Z,53.26
2022-10-17T16:08:21.024Z,53.11
2022-10-17T16:11:16.338Z,52.42
2022-10-17T16:14:08.035Z,52.33
2022-10-17T16:16:58.613Z,52.36
2022-10-17T16:19:48.726Z,52.27
2022-10-17T16:22:40.277Z,52.38
2022-10-17T16:25:31.503Z,52.40
2022-10-17T16:28:22.741Z,52.62
2022-10-17T16:31:21.448Z,52.57
2022-10-17T16:34:13.333Z,52.65
2022-10-17T16:37:03.770Z,52.75
2022-10-17T16:39:54.231Z,52.58
2022-10-17T16:42:44.355Z,52.33
2022-10-17T16:45:34.600Z,52.80
2022-10-17T16:48:29.625Z,52.65
2022-10-17T16:51:20.742Z,52.73
2022-10-17T16:54:10.921Z,52.68
2022-10-17T16:57:01.737Z,52.99
2022-10-17T16:59:52.138Z,52.95
2022-10-17T17:02:42.063Z,52.74
2022-10-17T17:05:32.136Z,53.07
2022-10-17T17:08:22.228Z,53.17
2022-10-17T17:11:13.913Z,53.29
2022-10-17T17:14:04.413Z,53.53
2022-10-17T17:16:54.933Z,53.55
2022-10-17T17:19:45.272Z,53.58
2022-10-17T17:22:35.619Z,53.86
2022-10-17T17:25:27.078Z,53.66
2022-10-17T17:28:17.507Z,53.76
2022-10-17T17:31:09.676Z,53.42
2022-10-17T17:34:00.379Z,53.57
2022-10-17T17:36:51.670Z,53.88
2022-10-17T17:39:43.266Z,53.86
2022-10-17T17:42:33.442Z,53.79
2022-10-17T17:45:23.605Z,53.98
2022-10-17T17:48:15.107Z,53.76
2022-10-17T17:51:06.696Z,53.63
2022-10-17T17:53:57.234Z,53.76
2022-10-17T17:56:47.855Z,53.85
2022-10-17T17:59:40.624Z,53.95
2022-10-17T18:02:31.224Z,53.84
2022-10-17T18:05:22.021Z,53.53
2022-10-17T18:08:12.311Z,53.73
2022-10-17T18:11:03.717Z,53.83
2022-10-17T18:13:56.707Z,53.88
2022-10-17T18:16:47.033Z,53.31
2022-10-17T18:19:37.692Z,53.51
2022-10-17T18:22:28.368Z,53.47
2022-10-17T18:25:18.962Z,53.36
2022-10-17T18:28:09.404Z,53.61
2022-10-17T18:31:14.655Z,53.69
2022-10-17T18:34:05.670Z,54.01
2022-10-17T18:36:59.375Z,54.00
2022-10-17T18:39:52.206Z,54.07
2022-10-17T18:42:44.752Z,54.19
2022-10-17T18:45:40.058Z,54.05
2022-10-17T18:48:30.664Z,53.89
2022-10-17T18:51:24.604Z,54.09
2022-10-17T18:54:19.963Z,53.98
2022-10-17T18:57:11.375Z,53.71
2022-10-17T19:00:10.282Z,53.95
2022-10-17T19:03:02.407Z,53.98
2022-10-17T19:05:54.869Z,53.76
2022-10-17T19:08:52.749Z,53.78
2022-10-17T19:11:50.251Z,53.72
2022-10-17T19:14:44.928Z,53.44
2022-10-17T19:17:35.480Z,53.32
2022-10-17T19:20:29.207Z,53.37
2022-10-17T19:23:19.579Z,53.11
2022-10-17T19:26:12.395Z,53.36
2022-10-17T19:29:05.331Z,53.24
2022-10-17T19:32:00.675Z,54.93
2022-10-17T19:39:33.603Z,55.07
2022-10-17T19:42:30.424Z,54.99
2022-10-17T19:45:21.167Z,54.98
2022-10-17T19:48:11.446Z,54.95
2022-10-17T19:51:03.458Z,54.95
2022-10-17T19:53:54.819Z,55.14
2022-10-17T19:56:45.130Z,54.87
2022-10-17T19:59:35.543Z,54.54
2022-10-17T20:02:26.029Z,53.97
2022-10-17T20:05:19.254Z,54.06
2022-10-17T20:08:10.495Z,53.83
2022-10-17T20:11:13.366Z,53.56
2022-10-17T20:14:03.960Z,53.59
2022-10-17T20:16:55.719Z,53.69
2022-10-17T20:19:46.602Z,53.80
2022-10-17T20:22:37.136Z,54.27
2022-10-17T20:25:27.717Z,53.23
2022-10-17T20:28:18.150Z,52.60
2022-10-17T20:31:08.597Z,52.50
2022-10-17T20:33:59.670Z,52.56
2022-10-17T20:36:50.189Z,52.43
2022-10-17T20:39:40.705Z,52.85
2022-10-17T20:42:31.420Z,52.99
2022-10-17T20:45:37.279Z,53.09
2022-10-17T20:48:33.311Z,53.28
2022-10-17T20:51:23.984Z,53.53
2022-10-17T20:54:14.453Z,53.79
2022-10-17T20:57:05.517Z,53.71
2022-10-17T20:59:58.401Z,54.02
2022-10-17T21:02:49.131Z,53.74
2022-10-17T21:05:42.694Z,54.09
2022-10-17T21:08:33.217Z,53.91
2022-10-17T21:11:27.495Z,53.66
2022-10-17T21:14:17.654Z,54.22
2022-10-17T21:17:08.143Z,54.01
2022-10-17T21:19:58.482Z,54.04
2022-10-17T21:22:48.773Z,54.34
2022-10-17T21:25:40.777Z,54.45
2022-10-17T21:28:32.023Z,54.41
2022-10-17T21:31:23.573Z,54.47
2022-10-17T21:34:16.946Z,54.32
2022-10-17T21:37:07.570Z,54.22
2022-10-17T21:39:57.608Z,54.34
2022-10-17T21:42:47.663Z,54.50
2022-10-17T21:45:38.649Z,54.39
2022-10-17T21:48:28.627Z,54.21
2022-10-17T21:51:20.777Z,54.30
2022-10-17T21:54:10.909Z,54.55
2022-10-17T21:57:00.950Z,54.63
2022-10-17T21:59:51.210Z,54.52
2022-10-17T22:02:41.141Z,54.34
2022-10-17T22:05:32.193Z,54.48
2022-10-17T22:08:22.213Z,54.47
2022-10-17T22:11:13.909Z,54.58
2022-10-17T22:14:05.490Z,54.55
2022-10-17T22:16:55.613Z,54.51
2022-10-17T22:19:45.640Z,54.74
2022-10-17T22:22:35.759Z,54.69
2022-10-17T22:25:25.708Z,54.74
2022-10-17T22:28:15.602Z,54.61
2022-10-17T22:31:05.919Z,54.63
2022-10-17T22:33:56.367Z,54.73
2022-10-17T22:36:48.292Z,54.52
2022-10-17T22:39:38.425Z,54.55
2022-10-17T22:42:30.833Z,54.85
2022-10-17T22:45:20.835Z,54.64
2022-10-17T22:48:10.870Z,54.68
2022-10-17T22:51:01.080Z,54.64
2022-10-17T22:53:51.240Z,54.81
2022-10-17T22:56:41.286Z,54.69
2022-10-17T22:59:31.393Z,54.86
2022-10-17T23:02:21.774Z,54.59
2022-10-17T23:05:11.845Z,54.81
2022-10-17T23:08:01.784Z,54.69
2022-10-17T23:10:51.828Z,54.85
2022-10-17T23:13:41.837Z,54.71
2022-10-17T23:16:31.861Z,54.88
2022-10-17T23:19:22.154Z,54.67
2022-10-17T23:22:12.152Z,54.67
2022-10-17T23:25:02.626Z,54.47
2022-10-17T23:27:52.660Z,54.69
2022-10-17T23:30:42.717Z,54.54
2022-10-17T23:33:32.800Z,54.87
2022-10-17T23:36:22.929Z,54.60
2022-10-17T23:39:13.054Z,54.67
2022-10-17T23:42:03.081Z,54.69
2022-10-17T23:44:53.697Z,54.84
2022-10-17T23:47:43.676Z,54.97
2022-10-17T23:50:33.673Z,54.69
2022-10-17T23:53:23.797Z,54.66
2022-10-17T23:56:13.981Z,54.83
2022-10-17T23:59:04.033Z,54.78
